createdAt,value
2022-10-19T00:04:02.506Z,6.50
2022-10-19T00:10:06.695Z,6.38
2022-10-19T00:16:11.409Z,7.22
2022-10-19T00:22:14.135Z,7.50
2022-10-19T00:28:15.748Z,6.93
2022-10-19T00:34:17.492Z,6.57
2022-10-19T00:40:19.007Z,6.75
2022-10-19T00:46:20.810Z,7.10
2022-10-19T00:52:23.528Z,7.30
2022-10-19T00:58:24.979Z,7.47
2022-10-19T01:04:26.960Z,7.17
2022-10-19T01:10:38.055Z,6.75
2022-10-19T01:16:47.871Z,6.70
2022-10-19T01:23:17.077Z,6.83
2022-10-19T01:29:40.691Z,7.00
2022-10-19T01:35:49.807Z,6.93
2022-10-19T01:42:07.137Z,7.45
2022-10-19T01:48:21.774Z,5.90
2022-10-19T01:54:24.043Z,7.30
2022-10-19T02:00:26.156Z,5.97
2022-10-19T02:06:27.775Z,6.87
2022-10-19T02:12:30.002Z,7.10
2022-10-19T02:18:34.265Z,6.32
2022-10-19T02:24:35.784Z,6.70
2022-10-19T02:30:37.564Z,6.03
2022-10-19T02:36:39.072Z,6.17
2022-10-19T02:42:47.941Z,5.80
2022-10-19T02:48:50.662Z,5.95
2022-10-19T02:54:52.091Z,5.50
2022-10-19T03:00:53.567Z,6.00
2022-10-19T03:06:55.046Z,6.17
2022-10-19T03:19:48.069Z,6.70
2022-10-19T03:25:49.526Z,5.73
2022-10-19T03:31:51.490Z,5.57
2022-10-19T03:37:52.919Z,5.37
2022-10-19T03:43:54.693Z,5.22
2022-10-19T03:49:56.179Z,5.40
2022-10-19T03:56:01.897Z,5.23
2022-10-19T04:02:03.754Z,5.70
2022-10-19T04:08:05.410Z,6.23
2022-10-19T04:14:07.102Z,5.82
2022-10-19T04:20:08.896Z,7.03
2022-10-19T04:26:10.321Z,6.37
2022-10-19T04:32:11.740Z,5.78
2022-10-19T04:38:13.189Z,4.83
2022-10-19T04:44:15.433Z,5.40
2022-10-19T04:50:17.088Z,5.85
2022-10-19T04:56:22.983Z,5.23
2022-10-19T05:02:24.421Z,4.80
2022-10-19T05:08:25.883Z,4.90
2022-10-19T05:20:29.758Z,4.80
2022-10-19T05:26:31.279Z,4.70
2022-10-19T05:32:32.733Z,4.78
2022-10-19T05:38:34.182Z,4.40
2022-10-19T05:44:35.962Z,4.93
2022-10-19T05:50:37.471Z,4.30
2022-10-19T05:56:39.523Z,4.40
2022-10-19T06:02:41.017Z,4.43
2022-10-19T06:08:42.467Z,4.57
2022-10-19T06:20:51.455Z,5.13
2022-10-19T06:26:52.908Z,5.07
2022-10-19T06:32:54.474Z,5.60
2022-10-19T06:38:56.676Z,5.00
2022-10-19T06:44:58.124Z,5.28
2022-10-19T06:51:06.162Z,5.40
2022-10-19T06:57:08.077Z,5.23
2022-10-19T07:03:09.575Z,4.68
2022-10-19T07:09:11.068Z,5.00
2022-10-19T07:15:12.584Z,5.10
2022-10-19T07:21:14.863Z,4.93
2022-10-19T07:27:16.366Z,5.30
2022-10-19T07:39:19.265Z,4.90
2022-10-19T07:45:21.527Z,4.75
2022-10-19T07:51:23.163Z,4.50
2022-10-19T07:57:24.663Z,4.20
2022-10-19T08:09:53.142Z,4.10
2022-10-19T08:15:55.271Z,4.30
2022-10-19T08:21:56.743Z,4.97
2022-10-19T08:27:58.266Z,4.57
2022-10-19T08:33:59.918Z,4.90
2022-10-19T08:40:01.432Z,4.37
2022-10-19T08:46:09.750Z,3.95
2022-10-19T08:52:13.782Z,4.38
2022-10-19T08:58:18.230Z,3.80
2022-10-19T09:04:19.679Z,3.17
2022-10-19T09:10:29.807Z,3.17
2022-10-19T09:16:31.383Z,2.70
2022-10-19T09:22:35.624Z,2.85
2022-10-19T09:28:56.021Z,2.63
2022-10-19T09:35:01.038Z,2.67
2022-10-19T09:41:11.896Z,1.90
2022-10-19T09:47:19.196Z,1.80
2022-10-19T09:53:21.440Z,2.10
2022-10-19T09:59:24.544Z,2.00
2022-10-19T10:05:33.834Z,1.88
2022-10-19T10:11:39.480Z,1.77
2022-10-19T10:17:40.993Z,2.28
2022-10-19T10:23:42.618Z,2.25
2022-10-19T10:29:53.773Z,2.30
2022-10-19T10:35:57.727Z,3.72
2022-10-19T10:42:06.548Z,2.13
2022-10-19T10:48:17.439Z,1.50
2022-10-19T10:54:20.351Z,1.40
2022-10-19T11:00:24.030Z,1.60
2022-10-19T11:06:25.813Z,1.05
2022-10-19T11:12:38.435Z,1.10
2022-10-19T11:18:44.604Z,1.27
2022-10-19T11:24:59.197Z,1.48
2022-10-19T11:31:18.146Z,1.27
2022-10-19T11:37:26.112Z,1.20
2022-10-19T11:43:42.887Z,1.20
2022-10-19T11:49:44.339Z,1.25
2022-10-19T11:55:48.856Z,1.10
2022-10-19T12:02:14.346Z,1.27
2022-10-19T12:14:27.864Z,1.17
2022-10-19T12:20:32.472Z,0.88
2022-10-19T12:26:35.440Z,1.20
2022-10-19T12:32:50.798Z,1.20
2022-10-19T12:39:00.049Z,0.90
2022-10-19T12:45:02.006Z,0.70
2022-10-19T12:51:08.025Z,0.70
2022-10-19T12:57:25.953Z,0.82
2022-10-19T13:03:30.308Z,0.67
2022-10-19T13:09:33.993Z,1.10
2022-10-19T13:15:35.467Z,1.00
2022-10-19T13:21:47.197Z,1.02
2022-10-19T13:27:49.612Z,0.65
2022-10-19T13:33:51.582Z,0.97
2022-10-19T13:39:53.800Z,0.80
2022-10-19T13:45:55.370Z,1.13
2022-10-19T13:52:18.732Z,0.75
2022-10-19T13:58:28.267Z,0.90
2022-10-19T14:04:51.434Z,0.80
2022-10-19T14:11:01.538Z,0.80
2022-10-19T14:17:04.479Z,0.70
2022-10-19T14:23:23.862Z,1.02
2022-10-19T14:29:25.704Z,0.80
2022-10-19T14:35:28.425Z,1.20
2022-10-19T14:47:50.698Z,1.17
2022-10-19T14:54:15.984Z,1.35
2022-10-19T15:00:22.045Z,0.70
2022-10-19T15:06:25.518Z,0.90
2022-10-19T15:12:29.525Z,0.77
2022-10-19T15:18:48.707Z,1.00
2022-10-19T15:24:58.858Z,0.90
2022-10-19T15:31:01.600Z,0.90
2022-10-19T15:37:03.445Z,1.20
2022-10-19T15:43:23.821Z,2.10
2022-10-19T15:49:40.831Z,1.13
2022-10-19T15:55:42.399Z,1.80
2022-10-19T16:01:44.544Z,0.77
2022-10-19T16:07:46.116Z,1.77
2022-10-19T16:13:47.635Z,1.63
2022-10-19T16:19:49.096Z,1.37
2022-10-19T16:25:50.667Z,0.93
2022-10-19T16:31:52.124Z,1.00
2022-10-19T16:37:53.704Z,1.80
2022-10-19T16:43:55.811Z,1.77
2022-10-19T16:50:01.138Z,1.50
2022-10-19T16:56:09.368Z,1.33
2022-10-19T17:02:13.010Z,1.02
2022-10-19T17:08:14.464Z,1.10
2022-10-19T17:14:15.942Z,1.30
2022-10-19T17:20:17.945Z,1.20
2022-10-19T17:26:24.316Z,1.20
2022-10-19T17:32:25.775Z,1.30
2022-10-19T17:38:27.362Z,1.33
2022-10-19T17:44:30.452Z,1.58
2022-10-19T17:50:31.998Z,2.27
2022-10-19T17:56:33.905Z,2.97
2022-10-19T18:02:35.839Z,2.47
2022-10-19T18:08:38.732Z,3.17
2022-10-19T18:14:40.257Z,3.00
2022-10-19T18:20:41.719Z,3.40
2022-10-19T18:26:43.190Z,2.95
2022-10-19T18:32:44.671Z,2.85
2022-10-19T18:38:49.847Z,2.63
2022-10-19T18:44:51.304Z,2.38
2022-10-19T18:50:52.831Z,2.67
2022-10-19T18:56:55.085Z,2.80
2022-10-19T19:02:56.688Z,5.15
2022-10-19T19:08:59.756Z,4.43
2022-10-19T19:15:01.414Z,6.47
2022-10-19T19:21:03.341Z,5.33
2022-10-19T19:27:04.849Z,5.00
2022-10-19T19:33:06.332Z,5.18
2022-10-19T19:39:07.808Z,5.63
2022-10-19T19:45:09.492Z,5.57
2022-10-19T19:51:12.923Z,5.63
2022-10-19T19:57:14.430Z,5.72
2022-10-19T20:03:16.309Z,5.80
2022-10-19T20:09:17.855Z,6.70
2022-10-19T20:15:19.609Z,6.43
2022-10-19T20:21:24.806Z,7.20
2022-10-19T20:27:26.349Z,7.00
2022-10-19T20:33:28.758Z,6.38
2022-10-19T20:39:30.205Z,7.47
2022-10-19T20:45:31.702Z,7.88
2022-10-19T20:51:36.398Z,6.83
2022-10-19T20:57:37.853Z,7.07
2022-10-19T21:03:39.953Z,6.55
2022-10-19T21:09:41.408Z,7.40
2022-10-19T21:15:42.999Z,6.78
2022-10-19T21:21:45.897Z,6.57
2022-10-19T21:27:47.376Z,6.13
2022-10-19T21:33:48.957Z,6.75
2022-10-19T21:39:50.408Z,6.30
2022-10-19T21:45:51.883Z,5.88
2022-10-19T21:51:54.004Z,6.03
2022-10-19T21:57:55.473Z,5.03
2022-10-19T22:03:57.543Z,4.78
2022-10-19T22:09:59.028Z,5.77
2022-10-19T22:16:04.818Z,5.03
2022-10-19T22:22:08.592Z,5.03
2022-10-19T22:28:10.017Z,4.40
2022-10-19T22:34:13.480Z,4.70
2022-10-19T22:40:14.946Z,4.57
2022-10-19T22:46:16.438Z,4.57
2022-10-19T22:52:17.915Z,4.23
2022-10-19T22:58:19.917Z,5.22
2022-10-19T23:04:21.469Z,4.90
2022-10-19T23:10:22.942Z,4.90
2022-10-19T23:16:24.413Z,4.35
2022-10-19T23:22:25.875Z,3.97
2022-10-19T23:28:27.873Z,4.10
2022-10-19T23:34:29.411Z,4.47
2022-10-19T23:40:31.119Z,4.33
2022-10-19T23:46:32.585Z,4.10
2022-10-19T23:52:34.015Z,3.53
2022-10-19T23:58:35.478Z,4.20
